sensor_id;sensor_type;location;lat;lon;timestamp;P1;durP1;ratioP1;P2;durP2;ratioP2
22068;SDS011;13887;57.196;-2.100;2022-09-09T00:04:28;30.70;;;18.50;;
22068;SDS011;13887;57.196;-2.100;2022-09-09T00:12:25;29.67;;;18.17;;
22068;SDS011;13887;57.196;-2.100;2022-09-09T00:15:02;24.87;;;17.67;;
22068;SDS011;13887;57.196;-2.100;2022-09-09T00:20:33;23.60;;;17.43;;
22068;SDS011;13887;57.196;-2.100;2022-09-09T00:28:48;22.60;;;17.37;;
22068;SDS011;13887;57.196;-2.100;2022-09-09T00:31:25;26.00;;;18.00;;
22068;SDS011;13887;57.196;-2.100;2022-09-09T00:33:54;27.00;;;18.03;;
22068;SDS011;13887;57.196;-2.100;2022-09-09T00:36:49;28.53;;;18.97;;
22068;SDS011;13887;57.196;-2.100;2022-09-09T00:44:48;28.80;;;18.60;;
22068;SDS011;13887;57.196;-2.100;2022-09-09T00:50:17;32.70;;;18.83;;
22068;SDS011;13887;57.196;-2.100;2022-09-09T00:58:15;32.87;;;18.07;;
22068;SDS011;13887;57.196;-2.100;2022-09-09T01:03:44;41.23;;;19.27;;
22068;SDS011;13887;57.196;-2.100;2022-09-09T01:06:23;36.00;;;19.30;;
22068;SDS011;13887;57.196;-2.100;2022-09-09T01:11:26;33.93;;;18.33;;
22068;SDS011;13887;57.196;-2.100;2022-09-09T01:14:01;34.23;;;18.67;;
22068;SDS011;13887;57.196;-2.100;2022-09-09T01:16:39;40.93;;;19.33;;
22068;SDS011;13887;57.196;-2.100;2022-09-09T01:19:09;27.23;;;17.60;;
22068;SDS011;13887;57.196;-2.100;2022-09-09T01:21:49;45.23;;;19.77;;
22068;SDS011;13887;57.196;-2.100;2022-09-09T01:28:03;33.23;;;19.27;;
22068;SDS011;13887;57.196;-2.100;2022-09-09T01:30:37;27.13;;;17.93;;
22068;SDS011;13887;57.196;-2.100;2022-09-09T01:33:09;36.43;;;18.77;;
22068;SDS011;13887;57.196;-2.100;2022-09-09T01:38:36;44.03;;;18.67;;
22068;SDS011;13887;57.196;-2.100;2022-09-09T01:41:03;30.10;;;18.80;;
22068;SDS011;13887;57.196;-2.100;2022-09-09T01:43:50;39.33;;;18.90;;
22068;SDS011;13887;57.196;-2.100;2022-09-09T01:46:21;36.93;;;18.30;;
22068;SDS011;13887;57.196;-2.100;2022-09-09T01:48:52;33.60;;;19.13;;
22068;SDS011;13887;57.196;-2.100;2022-09-09T01:51:21;29.53;;;19.40;;
22068;SDS011;13887;57.196;-2.100;2022-09-09T01:53:49;37.30;;;18.33;;
22068;SDS011;13887;57.196;-2.100;2022-09-09T01:56:19;28.87;;;18.30;;
22068;SDS011;13887;57.196;-2.100;2022-09-09T02:04:52;30.87;;;19.03;;
22068;SDS011;13887;57.196;-2.100;2022-09-09T02:10:25;32.67;;;18.10;;
22068;SDS011;13887;57.196;-2.100;2022-09-09T02:13:11;27.50;;;17.33;;
22068;SDS011;13887;57.196;-2.100;2022-09-09T02:18:28;32.87;;;18.53;;
22068;SDS011;13887;57.196;-2.100;2022-09-09T02:21:00;22.87;;;16.73;;
22068;SDS011;13887;57.196;-2.100;2022-09-09T02:23:29;33.27;;;17.87;;
22068;SDS011;13887;57.196;-2.100;2022-09-09T02:25:59;35.20;;;17.83;;
22068;SDS011;13887;57.196;-2.100;2022-09-09T02:28:29;29.87;;;17.43;;
22068;SDS011;13887;57.196;-2.100;2022-09-09T02:30:58;26.40;;;16.93;;
22068;SDS011;13887;57.196;-2.100;2022-09-09T02:33:33;35.10;;;18.00;;
22068;SDS011;13887;57.196;-2.100;2022-09-09T02:36:05;28.10;;;17.27;;
22068;SDS011;13887;57.196;-2.100;2022-09-09T02:38:36;29.13;;;17.40;;
22068;SDS011;13887;57.196;-2.100;2022-09-09T02:41:32;39.30;;;17.83;;
22068;SDS011;13887;57.196;-2.100;2022-09-09T02:44:01;28.07;;;18.13;;
22068;SDS011;13887;57.196;-2.100;2022-09-09T02:49:28;26.57;;;17.33;;
22068;SDS011;13887;57.196;-2.100;2022-09-09T02:52:19;21.67;;;17.50;;
22068;SDS011;13887;57.196;-2.100;2022-09-09T02:54:53;36.83;;;18.17;;
22068;SDS011;13887;57.196;-2.100;2022-09-09T02:57:29;35.50;;;18.50;;
22068;SDS011;13887;57.196;-2.100;2022-09-09T02:59:58;36.40;;;18.57;;
22068;SDS011;13887;57.196;-2.100;2022-09-09T03:02:30;30.80;;;18.10;;
22068;SDS011;13887;57.196;-2.100;2022-09-09T03:05:02;36.33;;;18.77;;
22068;SDS011;13887;57.196;-2.100;2022-09-09T03:07:30;31.93;;;18.73;;
22068;SDS011;13887;57.196;-2.100;2022-09-09T03:09:56;35.63;;;18.27;;
22068;SDS011;13887;57.196;-2.100;2022-09-09T03:12:26;39.20;;;19.23;;
22068;SDS011;13887;57.196;-2.100;2022-09-09T03:14:53;35.93;;;18.50;;
22068;SDS011;13887;57.196;-2.100;2022-09-09T03:17:19;47.63;;;20.20;;
22068;SDS011;13887;57.196;-2.100;2022-09-09T03:19:51;40.43;;;19.23;;
22068;SDS011;13887;57.196;-2.100;2022-09-09T03:22:21;45.90;;;19.93;;
22068;SDS011;13887;57.196;-2.100;2022-09-09T03:24:48;36.70;;;19.00;;
22068;SDS011;13887;57.196;-2.100;2022-09-09T03:27:15;44.37;;;18.50;;
22068;SDS011;13887;57.196;-2.100;2022-09-09T03:29:43;32.07;;;19.37;;
22068;SDS011;13887;57.196;-2.100;2022-09-09T03:32:15;29.23;;;17.83;;
22068;SDS011;13887;57.196;-2.100;2022-09-09T03:34:44;35.93;;;18.77;;
22068;SDS011;13887;57.196;-2.100;2022-09-09T03:37:12;39.33;;;17.97;;
22068;SDS011;13887;57.196;-2.100;2022-09-09T03:39:39;34.33;;;18.63;;
22068;SDS011;13887;57.196;-2.100;2022-09-09T03:42:07;32.00;;;18.83;;
22068;SDS011;13887;57.196;-2.100;2022-09-09T03:44:34;38.17;;;18.20;;
22068;SDS011;13887;57.196;-2.100;2022-09-09T03:47:01;40.63;;;18.10;;
22068;SDS011;13887;57.196;-2.100;2022-09-09T03:49:28;39.60;;;18.77;;
22068;SDS011;13887;57.196;-2.100;2022-09-09T03:51:55;40.40;;;18.77;;
22068;SDS011;13887;57.196;-2.100;2022-09-09T03:54:24;44.17;;;18.60;;
22068;SDS011;13887;57.196;-2.100;2022-09-09T03:56:51;50.23;;;20.57;;
22068;SDS011;13887;57.196;-2.100;2022-09-09T03:59:19;34.97;;;18.23;;
22068;SDS011;13887;57.196;-2.100;2022-09-09T04:01:47;36.37;;;17.43;;
22068;SDS011;13887;57.196;-2.100;2022-09-09T04:04:14;30.67;;;17.90;;
22068;SDS011;13887;57.196;-2.100;2022-09-09T04:06:42;27.20;;;18.23;;
22068;SDS011;13887;57.196;-2.100;2022-09-09T04:09:08;36.43;;;18.10;;
22068;SDS011;13887;57.196;-2.100;2022-09-09T04:11:35;31.20;;;18.77;;
22068;SDS011;13887;57.196;-2.100;2022-09-09T04:14:03;32.20;;;18.40;;
22068;SDS011;13887;57.196;-2.100;2022-09-09T04:16:33;29.20;;;17.33;;
22068;SDS011;13887;57.196;-2.100;2022-09-09T04:19:02;33.50;;;18.33;;
22068;SDS011;13887;57.196;-2.100;2022-09-09T04:21:30;30.20;;;18.43;;
22068;SDS011;13887;57.196;-2.100;2022-09-09T04:23:58;35.80;;;19.17;;
22068;SDS011;13887;57.196;-2.100;2022-09-09T04:26:26;37.30;;;19.53;;
22068;SDS011;13887;57.196;-2.100;2022-09-09T04:28:53;42.43;;;21.57;;
22068;SDS011;13887;57.196;-2.100;2022-09-09T04:31:21;32.77;;;19.10;;
22068;SDS011;13887;57.196;-2.100;2022-09-09T04:33:53;41.23;;;19.77;;
22068;SDS011;13887;57.196;-2.100;2022-09-09T04:36:20;37.80;;;19.90;;
22068;SDS011;13887;57.196;-2.100;2022-09-09T04:38:50;41.67;;;20.63;;
22068;SDS011;13887;57.196;-2.100;2022-09-09T04:41:17;34.33;;;20.07;;
22068;SDS011;13887;57.196;-2.100;2022-09-09T04:43:47;38.87;;;19.67;;
22068;SDS011;13887;57.196;-2.100;2022-09-09T04:46:15;35.53;;;19.37;;
22068;SDS011;13887;57.196;-2.100;2022-09-09T04:48:45;41.17;;;20.53;;
22068;SDS011;13887;57.196;-2.100;2022-09-09T04:51:13;32.67;;;19.80;;
22068;SDS011;13887;57.196;-2.100;2022-09-09T04:53:42;32.50;;;19.63;;
22068;SDS011;13887;57.196;-2.100;2022-09-09T04:56:12;25.23;;;17.80;;
22068;SDS011;13887;57.196;-2.100;2022-09-09T04:58:46;26.37;;;18.33;;
22068;SDS011;13887;57.196;-2.100;2022-09-09T05:01:15;28.27;;;18.20;;
22068;SDS011;13887;57.196;-2.100;2022-09-09T05:03:49;25.17;;;17.97;;
22068;SDS011;13887;57.196;-2.100;2022-09-09T05:06:20;23.77;;;18.27;;
22068;SDS011;13887;57.196;-2.100;2022-09-09T05:08:52;22.70;;;18.30;;
22068;SDS011;13887;57.196;-2.100;2022-09-09T05:11:23;23.33;;;18.70;;
22068;SDS011;13887;57.196;-2.100;2022-09-09T05:13:57;28.13;;;19.20;;
22068;SDS011;13887;57.196;-2.100;2022-09-09T05:16:24;29.20;;;18.20;;
22068;SDS011;13887;57.196;-2.100;2022-09-09T05:18:52;30.73;;;18.60;;
22068;SDS011;13887;57.196;-2.100;2022-09-09T05:21:20;21.80;;;18.67;;
22068;SDS011;13887;57.196;-2.100;2022-09-09T05:23:49;29.17;;;19.03;;
22068;SDS011;13887;57.196;-2.100;2022-09-09T05:26:18;30.17;;;20.23;;
22068;SDS011;13887;57.196;-2.100;2022-09-09T05:28:49;33.23;;;19.87;;
22068;SDS011;13887;57.196;-2.100;2022-09-09T05:31:16;40.80;;;20.50;;
22068;SDS011;13887;57.196;-2.100;2022-09-09T05:33:48;36.03;;;19.80;;
22068;SDS011;13887;57.196;-2.100;2022-09-09T05:36:16;42.87;;;20.40;;
22068;SDS011;13887;57.196;-2.100;2022-09-09T05:38:47;40.57;;;20.17;;
22068;SDS011;13887;57.196;-2.100;2022-09-09T05:41:14;35.13;;;19.70;;
22068;SDS011;13887;57.196;-2.100;2022-09-09T05:43:43;37.97;;;20.07;;
22068;SDS011;13887;57.196;-2.100;2022-09-09T05:46:12;42.00;;;20.33;;
22068;SDS011;13887;57.196;-2.100;2022-09-09T05:48:41;43.23;;;19.73;;
22068;SDS011;13887;57.196;-2.100;2022-09-09T05:51:10;38.10;;;20.00;;
22068;SDS011;13887;57.196;-2.100;2022-09-09T05:53:39;36.23;;;19.40;;
22068;SDS011;13887;57.196;-2.100;2022-09-09T05:56:07;31.20;;;19.60;;
22068;SDS011;13887;57.196;-2.100;2022-09-09T05:58:38;36.43;;;20.53;;
22068;SDS011;13887;57.196;-2.100;2022-09-09T06:01:09;38.53;;;21.40;;
22068;SDS011;13887;57.196;-2.100;2022-09-09T06:03:39;41.67;;;20.60;;
22068;SDS011;13887;57.196;-2.100;2022-09-09T06:06:10;39.50;;;21.13;;
22068;SDS011;13887;57.196;-2.100;2022-09-09T06:08:40;40.97;;;20.83;;
22068;SDS011;13887;57.196;-2.100;2022-09-09T06:11:12;39.37;;;20.77;;
22068;SDS011;13887;57.196;-2.100;2022-09-09T06:13:39;44.87;;;20.83;;
22068;SDS011;13887;57.196;-2.100;2022-09-09T06:16:14;55.13;;;21.43;;
22068;SDS011;13887;57.196;-2.100;2022-09-09T06:18:42;57.90;;;21.17;;
22068;SDS011;13887;57.196;-2.100;2022-09-09T06:21:20;46.87;;;22.37;;
22068;SDS011;13887;57.196;-2.100;2022-09-09T06:23:49;55.97;;;23.00;;
22068;SDS011;13887;57.196;-2.100;2022-09-09T06:26:19;38.37;;;20.37;;
22068;SDS011;13887;57.196;-2.100;2022-09-09T06:28:49;41.20;;;20.27;;
22068;SDS011;13887;57.196;-2.100;2022-09-09T06:31:19;39.07;;;20.77;;
22068;SDS011;13887;57.196;-2.100;2022-09-09T06:33:53;45.73;;;21.00;;
22068;SDS011;13887;57.196;-2.100;2022-09-09T06:38:51;46.80;;;20.50;;
22068;SDS011;13887;57.196;-2.100;2022-09-09T06:41:20;39.97;;;21.23;;
22068;SDS011;13887;57.196;-2.100;2022-09-09T06:43:49;45.37;;;20.03;;
22068;SDS011;13887;57.196;-2.100;2022-09-09T06:46:17;37.40;;;19.20;;
22068;SDS011;13887;57.196;-2.100;2022-09-09T06:48:46;32.03;;;20.30;;
22068;SDS011;13887;57.196;-2.100;2022-09-09T06:51:15;47.07;;;20.93;;
22068;SDS011;13887;57.196;-2.100;2022-09-09T06:53:45;49.30;;;21.10;;
22068;SDS011;13887;57.196;-2.100;2022-09-09T06:58:44;40.27;;;20.50;;
22068;SDS011;13887;57.196;-2.100;2022-09-09T07:01:19;49.33;;;20.93;;
22068;SDS011;13887;57.196;-2.100;2022-09-09T07:03:51;42.10;;;20.47;;
22068;SDS011;13887;57.196;-2.100;2022-09-09T07:06:20;39.10;;;20.93;;
22068;SDS011;13887;57.196;-2.100;2022-09-09T07:08:51;46.83;;;21.57;;
22068;SDS011;13887;57.196;-2.100;2022-09-09T07:11:25;54.57;;;21.63;;
22068;SDS011;13887;57.196;-2.100;2022-09-09T07:13:56;52.77;;;21.50;;
22068;SDS011;13887;57.196;-2.100;2022-09-09T07:16:24;52.83;;;21.60;;
22068;SDS011;13887;57.196;-2.100;2022-09-09T07:18:55;55.40;;;23.27;;
22068;SDS011;13887;57.196;-2.100;2022-09-09T07:21:25;42.40;;;20.30;;
22068;SDS011;13887;57.196;-2.100;2022-09-09T07:23:53;45.57;;;22.03;;
22068;SDS011;13887;57.196;-2.100;2022-09-09T07:26:25;44.90;;;20.90;;
22068;SDS011;13887;57.196;-2.100;2022-09-09T07:28:54;46.27;;;22.33;;
22068;SDS011;13887;57.196;-2.100;2022-09-09T07:31:25;51.33;;;21.50;;
22068;SDS011;13887;57.196;-2.100;2022-09-09T07:33:57;36.73;;;20.33;;
22068;SDS011;13887;57.196;-2.100;2022-09-09T07:36:27;43.40;;;21.60;;
22068;SDS011;13887;57.196;-2.100;2022-09-09T07:39:01;44.53;;;20.27;;
22068;SDS011;13887;57.196;-2.100;2022-09-09T07:41:35;38.40;;;19.93;;
22068;SDS011;13887;57.196;-2.100;2022-09-09T07:44:13;46.03;;;20.73;;
22068;SDS011;13887;57.196;-2.100;2022-09-09T07:46:47;43.97;;;20.40;;
22068;SDS011;13887;57.196;-2.100;2022-09-09T07:49:19;41.97;;;20.30;;
22068;SDS011;13887;57.196;-2.100;2022-09-09T07:51:55;51.83;;;20.57;;
22068;SDS011;13887;57.196;-2.100;2022-09-09T07:54:22;46.40;;;20.70;;
22068;SDS011;13887;57.196;-2.100;2022-09-09T07:56:52;37.87;;;20.23;;
22068;SDS011;13887;57.196;-2.100;2022-09-09T07:59:21;39.90;;;20.60;;
22068;SDS011;13887;57.196;-2.100;2022-09-09T08:01:51;35.10;;;19.67;;
22068;SDS011;13887;57.196;-2.100;2022-09-09T08:04:25;39.67;;;20.13;;
22068;SDS011;13887;57.196;-2.100;2022-09-09T08:06:54;33.73;;;19.70;;
22068;SDS011;13887;57.196;-2.100;2022-09-09T08:09:25;34.07;;;19.43;;
22068;SDS011;13887;57.196;-2.100;2022-09-09T08:12:07;39.13;;;20.10;;
22068;SDS011;13887;57.196;-2.100;2022-09-09T08:14:35;38.00;;;19.20;;
22068;SDS011;13887;57.196;-2.100;2022-09-09T08:17:02;38.17;;;19.20;;
22068;SDS011;13887;57.196;-2.100;2022-09-09T08:19:31;35.93;;;19.03;;
22068;SDS011;13887;57.196;-2.100;2022-09-09T08:22:01;35.50;;;18.47;;
22068;SDS011;13887;57.196;-2.100;2022-09-09T08:24:31;42.37;;;19.53;;
22068;SDS011;13887;57.196;-2.100;2022-09-09T08:26:58;32.17;;;19.03;;
22068;SDS011;13887;57.196;-2.100;2022-09-09T08:29:26;43.87;;;18.83;;
22068;SDS011;13887;57.196;-2.100;2022-09-09T08:31:56;33.60;;;18.67;;
22068;SDS011;13887;57.196;-2.100;2022-09-09T08:34:25;41.20;;;19.00;;
22068;SDS011;13887;57.196;-2.100;2022-09-09T08:36:55;31.97;;;17.83;;
22068;SDS011;13887;57.196;-2.100;2022-09-09T08:39:29;30.93;;;18.20;;
22068;SDS011;13887;57.196;-2.100;2022-09-09T08:41:59;27.83;;;18.10;;
22068;SDS011;13887;57.196;-2.100;2022-09-09T08:58:53;24.20;;;17.57;;
22068;SDS011;13887;57.196;-2.100;2022-09-09T09:07:07;41.97;;;17.67;;
22068;SDS011;13887;57.196;-2.100;2022-09-09T09:12:43;27.60;;;17.33;;
22068;SDS011;13887;57.196;-2.100;2022-09-09T09:15:16;34.43;;;18.60;;
22068;SDS011;13887;57.196;-2.100;2022-09-09T09:17:48;33.13;;;17.97;;
22068;SDS011;13887;57.196;-2.100;2022-09-09T09:20:18;30.50;;;18.70;;
22068;SDS011;13887;57.196;-2.100;2022-09-09T09:22:58;39.03;;;18.13;;
22068;SDS011;13887;57.196;-2.100;2022-09-09T09:25:34;32.70;;;18.47;;
22068;SDS011;13887;57.196;-2.100;2022-09-09T09:28:17;30.37;;;17.57;;
22068;SDS011;13887;57.196;-2.100;2022-09-09T09:30:55;31.73;;;18.00;;
22068;SDS011;13887;57.196;-2.100;2022-09-09T09:36:02;39.70;;;18.93;;
22068;SDS011;13887;57.196;-2.100;2022-09-09T09:38:30;31.93;;;18.77;;
22068;SDS011;13887;57.196;-2.100;2022-09-09T09:41:17;40.00;;;19.77;;
22068;SDS011;13887;57.196;-2.100;2022-09-09T09:44:33;41.83;;;18.87;;
22068;SDS011;13887;57.196;-2.100;2022-09-09T09:47:14;30.67;;;18.70;;
22068;SDS011;13887;57.196;-2.100;2022-09-09T09:49:54;38.30;;;18.83;;
22068;SDS011;13887;57.196;-2.100;2022-09-09T09:52:28;36.13;;;18.97;;
22068;SDS011;13887;57.196;-2.100;2022-09-09T09:54:57;30.27;;;18.77;;
22068;SDS011;13887;57.196;-2.100;2022-09-09T09:57:32;28.20;;;18.23;;
22068;SDS011;13887;57.196;-2.100;2022-09-09T10:02:43;36.00;;;19.30;;
22068;SDS011;13887;57.196;-2.100;2022-09-09T10:05:18;33.07;;;18.83;;
22068;SDS011;13887;57.196;-2.100;2022-09-09T10:08:01;29.87;;;18.27;;
22068;SDS011;13887;57.196;-2.100;2022-09-09T10:19:03;38.73;;;19.00;;
22068;SDS011;13887;57.196;-2.100;2022-09-09T10:32:17;30.93;;;18.40;;
22068;SDS011;13887;57.196;-2.100;2022-09-09T10:40:42;31.13;;;19.13;;
22068;SDS011;13887;57.196;-2.100;2022-09-09T10:51:43;30.47;;;18.43;;
22068;SDS011;13887;57.196;-2.100;2022-09-09T10:57:05;34.00;;;18.40;;
22068;SDS011;13887;57.196;-2.100;2022-09-09T10:59:45;32.57;;;18.17;;
22068;SDS011;13887;57.196;-2.100;2022-09-09T11:02:22;33.70;;;18.77;;
22068;SDS011;13887;57.196;-2.100;2022-09-09T11:10:32;20.70;;;17.60;;
22068;SDS011;13887;57.196;-2.100;2022-09-09T11:13:25;30.93;;;18.60;;
22068;SDS011;13887;57.196;-2.100;2022-09-09T11:15:56;32.63;;;17.60;;
22068;SDS011;13887;57.196;-2.100;2022-09-09T11:18:42;29.00;;;18.23;;
22068;SDS011;13887;57.196;-2.100;2022-09-09T11:21:26;30.87;;;17.70;;
22068;SDS011;13887;57.196;-2.100;2022-09-09T11:23:59;25.43;;;17.63;;
22068;SDS011;13887;57.196;-2.100;2022-09-09T11:26:37;23.63;;;16.50;;
22068;SDS011;13887;57.196;-2.100;2022-09-09T11:32:07;21.37;;;17.13;;
22068;SDS011;13887;57.196;-2.100;2022-09-09T11:34:34;35.10;;;17.70;;
22068;SDS011;13887;57.196;-2.100;2022-09-09T11:40:08;20.60;;;16.80;;
22068;SDS011;13887;57.196;-2.100;2022-09-09T11:42:42;23.27;;;17.33;;
22068;SDS011;13887;57.196;-2.100;2022-09-09T11:45:20;28.67;;;17.63;;
22068;SDS011;13887;57.196;-2.100;2022-09-09T11:47:58;29.13;;;18.37;;
22068;SDS011;13887;57.196;-2.100;2022-09-09T11:50:29;19.83;;;16.47;;
22068;SDS011;13887;57.196;-2.100;2022-09-09T11:53:04;23.83;;;16.43;;
22068;SDS011;13887;57.196;-2.100;2022-09-09T11:56:05;22.43;;;16.87;;
22068;SDS011;13887;57.196;-2.100;2022-09-09T11:58:38;20.47;;;16.50;;
22068;SDS011;13887;57.196;-2.100;2022-09-09T12:01:14;23.73;;;16.17;;
22068;SDS011;13887;57.196;-2.100;2022-09-09T12:06:53;19.10;;;16.67;;
22068;SDS011;13887;57.196;-2.100;2022-09-09T12:13:07;25.00;;;16.20;;
22068;SDS011;13887;57.196;-2.100;2022-09-09T12:14:59;20.03;;;15.67;;
22068;SDS011;13887;57.196;-2.100;2022-09-09T12:17:27;20.87;;;15.97;;
22068;SDS011;13887;57.196;-2.100;2022-09-09T12:28:04;20.37;;;15.87;;
22068;SDS011;13887;57.196;-2.100;2022-09-09T12:30:41;17.40;;;15.57;;
22068;SDS011;13887;57.196;-2.100;2022-09-09T12:33:20;19.07;;;17.10;;
22068;SDS011;13887;57.196;-2.100;2022-09-09T12:35:51;18.73;;;16.47;;
22068;SDS011;13887;57.196;-2.100;2022-09-09T12:38:43;20.00;;;15.97;;
22068;SDS011;13887;57.196;-2.100;2022-09-09T12:41:22;19.10;;;15.53;;
22068;SDS011;13887;57.196;-2.100;2022-09-09T12:43:51;18.43;;;16.70;;
22068;SDS011;13887;57.196;-2.100;2022-09-09T12:49:04;18.60;;;15.53;;
22068;SDS011;13887;57.196;-2.100;2022-09-09T12:51:32;18.53;;;16.50;;
22068;SDS011;13887;57.196;-2.100;2022-09-09T12:54:00;20.07;;;15.50;;
22068;SDS011;13887;57.196;-2.100;2022-09-09T12:56:28;25.20;;;15.50;;
22068;SDS011;13887;57.196;-2.100;2022-09-09T12:58:57;16.47;;;14.87;;
22068;SDS011;13887;57.196;-2.100;2022-09-09T13:01:29;20.80;;;15.90;;
22068;SDS011;13887;57.196;-2.100;2022-09-09T13:03:58;19.77;;;15.30;;
22068;SDS011;13887;57.196;-2.100;2022-09-09T13:06:29;16.53;;;14.83;;
22068;SDS011;13887;57.196;-2.100;2022-09-09T13:08:59;20.60;;;16.10;;
22068;SDS011;13887;57.196;-2.100;2022-09-09T13:14:01;22.57;;;16.00;;
22068;SDS011;13887;57.196;-2.100;2022-09-09T13:16:30;17.00;;;15.20;;
22068;SDS011;13887;57.196;-2.100;2022-09-09T13:19:09;23.07;;;16.53;;
22068;SDS011;13887;57.196;-2.100;2022-09-09T13:21:42;21.13;;;15.50;;
22068;SDS011;13887;57.196;-2.100;2022-09-09T13:24:23;21.97;;;16.00;;
22068;SDS011;13887;57.196;-2.100;2022-09-09T13:26:57;18.87;;;16.07;;
22068;SDS011;13887;57.196;-2.100;2022-09-09T13:29:26;23.00;;;15.57;;
22068;SDS011;13887;57.196;-2.100;2022-09-09T13:31:52;22.80;;;15.50;;
22068;SDS011;13887;57.196;-2.100;2022-09-09T13:34:26;16.43;;;14.77;;
22068;SDS011;13887;57.196;-2.100;2022-09-09T13:37:05;23.80;;;15.73;;
22068;SDS011;13887;57.196;-2.100;2022-09-09T13:39:40;24.03;;;15.87;;
22068;SDS011;13887;57.196;-2.100;2022-09-09T13:42:40;16.90;;;15.27;;
22068;SDS011;13887;57.196;-2.100;2022-09-09T13:45:19;20.17;;;15.63;;
22068;SDS011;13887;57.196;-2.100;2022-09-09T13:47:47;17.13;;;15.00;;
22068;SDS011;13887;57.196;-2.100;2022-09-09T13:52:56;17.03;;;15.27;;
22068;SDS011;13887;57.196;-2.100;2022-09-09T13:55:27;18.43;;;15.90;;
22068;SDS011;13887;57.196;-2.100;2022-09-09T13:57:59;22.60;;;16.00;;
22068;SDS011;13887;57.196;-2.100;2022-09-09T14:00:32;20.33;;;15.37;;
22068;SDS011;13887;57.196;-2.100;2022-09-09T14:03:00;26.53;;;16.13;;
22068;SDS011;13887;57.196;-2.100;2022-09-09T14:05:31;17.57;;;15.70;;
22068;SDS011;13887;57.196;-2.100;2022-09-09T14:08:00;19.33;;;16.30;;
22068;SDS011;13887;57.196;-2.100;2022-09-09T14:10:27;20.20;;;15.23;;
22068;SDS011;13887;57.196;-2.100;2022-09-09T14:12:54;22.00;;;16.13;;
22068;SDS011;13887;57.196;-2.100;2022-09-09T14:15:21;24.83;;;15.37;;
22068;SDS011;13887;57.196;-2.100;2022-09-09T14:17:48;16.63;;;15.23;;
22068;SDS011;13887;57.196;-2.100;2022-09-09T14:20:15;16.37;;;14.90;;
22068;SDS011;13887;57.196;-2.100;2022-09-09T14:22:43;21.47;;;15.37;;
22068;SDS011;13887;57.196;-2.100;2022-09-09T14:25:11;17.63;;;15.27;;
22068;SDS011;13887;57.196;-2.100;2022-09-09T14:27:40;18.93;;;15.17;;
22068;SDS011;13887;57.196;-2.100;2022-09-09T14:30:07;16.87;;;15.63;;
22068;SDS011;13887;57.196;-2.100;2022-09-09T14:32:34;22.13;;;16.30;;
22068;SDS011;13887;57.196;-2.100;2022-09-09T14:35:01;21.47;;;15.80;;
22068;SDS011;13887;57.196;-2.100;2022-09-09T14:37:28;17.97;;;15.30;;
22068;SDS011;13887;57.196;-2.100;2022-09-09T14:39:57;17.57;;;15.80;;
22068;SDS011;13887;57.196;-2.100;2022-09-09T14:42:24;20.13;;;15.87;;
22068;SDS011;13887;57.196;-2.100;2022-09-09T14:44:52;17.07;;;15.27;;
22068;SDS011;13887;57.196;-2.100;2022-09-09T14:47:19;19.20;;;15.17;;
22068;SDS011;13887;57.196;-2.100;2022-09-09T14:49:46;17.70;;;15.70;;
22068;SDS011;13887;57.196;-2.100;2022-09-09T14:52:15;18.47;;;15.70;;
22068;SDS011;13887;57.196;-2.100;2022-09-09T14:54:42;16.70;;;15.10;;
22068;SDS011;13887;57.196;-2.100;2022-09-09T14:57:09;24.90;;;15.90;;
22068;SDS011;13887;57.196;-2.100;2022-09-09T14:59:36;17.67;;;16.07;;
22068;SDS011;13887;57.196;-2.100;2022-09-09T15:02:03;17.97;;;15.97;;
22068;SDS011;13887;57.196;-2.100;2022-09-09T15:04:31;28.70;;;16.00;;
22068;SDS011;13887;57.196;-2.100;2022-09-09T15:06:57;17.67;;;15.97;;
22068;SDS011;13887;57.196;-2.100;2022-09-09T15:09:25;25.60;;;16.37;;
22068;SDS011;13887;57.196;-2.100;2022-09-09T15:11:52;18.20;;;16.00;;
22068;SDS011;13887;57.196;-2.100;2022-09-09T15:14:18;21.13;;;15.57;;
22068;SDS011;13887;57.196;-2.100;2022-09-09T15:16:50;23.57;;;16.13;;
22068;SDS011;13887;57.196;-2.100;2022-09-09T15:19:17;25.73;;;16.57;;
22068;SDS011;13887;57.196;-2.100;2022-09-09T15:21:44;20.47;;;15.80;;
22068;SDS011;13887;57.196;-2.100;2022-09-09T15:24:11;19.60;;;15.97;;
22068;SDS011;13887;57.196;-2.100;2022-09-09T15:26:39;23.70;;;16.40;;
22068;SDS011;13887;57.196;-2.100;2022-09-09T15:29:07;23.63;;;16.80;;
22068;SDS011;13887;57.196;-2.100;2022-09-09T15:31:34;20.13;;;15.97;;
22068;SDS011;13887;57.196;-2.100;2022-09-09T15:34:02;19.80;;;16.43;;
22068;SDS011;13887;57.196;-2.100;2022-09-09T15:36:35;19.43;;;15.60;;
22068;SDS011;13887;57.196;-2.100;2022-09-09T15:39:05;18.00;;;16.23;;
22068;SDS011;13887;57.196;-2.100;2022-09-09T15:41:39;25.67;;;17.53;;
22068;SDS011;13887;57.196;-2.100;2022-09-09T15:44:06;17.40;;;15.27;;
22068;SDS011;13887;57.196;-2.100;2022-09-09T15:46:43;23.33;;;16.50;;
22068;SDS011;13887;57.196;-2.100;2022-09-09T15:49:22;23.40;;;15.90;;
22068;SDS011;13887;57.196;-2.100;2022-09-09T15:51:58;21.40;;;16.63;;
22068;SDS011;13887;57.196;-2.100;2022-09-09T15:54:30;20.73;;;16.37;;
22068;SDS011;13887;57.196;-2.100;2022-09-09T15:56:59;20.20;;;16.20;;
22068;SDS011;13887;57.196;-2.100;2022-09-09T15:59:28;20.10;;;16.00;;
22068;SDS011;13887;57.196;-2.100;2022-09-09T16:01:57;22.80;;;16.63;;
22068;SDS011;13887;57.196;-2.100;2022-09-09T16:04:26;21.97;;;16.00;;
22068;SDS011;13887;57.196;-2.100;2022-09-09T16:06:56;25.77;;;16.20;;
22068;SDS011;13887;57.196;-2.100;2022-09-09T16:09:28;24.07;;;15.57;;
22068;SDS011;13887;57.196;-2.100;2022-09-09T16:11:56;20.47;;;15.40;;
22068;SDS011;13887;57.196;-2.100;2022-09-09T16:14:25;33.73;;;16.67;;
22068;SDS011;13887;57.196;-2.100;2022-09-09T16:16:52;26.37;;;15.73;;
22068;SDS011;13887;57.196;-2.100;2022-09-09T16:19:19;21.77;;;15.77;;
22068;SDS011;13887;57.196;-2.100;2022-09-09T16:21:47;21.83;;;15.87;;
22068;SDS011;13887;57.196;-2.100;2022-09-09T16:24:16;24.77;;;15.60;;
22068;SDS011;13887;57.196;-2.100;2022-09-09T16:26:45;17.47;;;15.30;;
22068;SDS011;13887;57.196;-2.100;2022-09-09T16:29:14;18.67;;;14.23;;
22068;SDS011;13887;57.196;-2.100;2022-09-09T16:31:44;19.07;;;14.53;;
22068;SDS011;13887;57.196;-2.100;2022-09-09T16:34:12;16.60;;;14.10;;
22068;SDS011;13887;57.196;-2.100;2022-09-09T16:36:41;22.67;;;13.17;;
22068;SDS011;13887;57.196;-2.100;2022-09-09T16:39:12;17.90;;;14.27;;
22068;SDS011;13887;57.196;-2.100;2022-09-09T16:41:44;16.47;;;14.07;;
22068;SDS011;13887;57.196;-2.100;2022-09-09T16:44:14;16.57;;;14.33;;
22068;SDS011;13887;57.196;-2.100;2022-09-09T16:46:43;16.90;;;14.60;;
22068;SDS011;13887;57.196;-2.100;2022-09-09T16:49:12;15.07;;;13.60;;
22068;SDS011;13887;57.196;-2.100;2022-09-09T16:51:48;15.00;;;13.83;;
22068;SDS011;13887;57.196;-2.100;2022-09-09T16:54:19;18.70;;;14.33;;
22068;SDS011;13887;57.196;-2.100;2022-09-09T16:56:48;15.83;;;14.40;;
22068;SDS011;13887;57.196;-2.100;2022-09-09T16:59:19;17.90;;;14.97;;
22068;SDS011;13887;57.196;-2.100;2022-09-09T17:01:48;18.50;;;14.30;;
22068;SDS011;13887;57.196;-2.100;2022-09-09T17:04:17;14.50;;;13.17;;
22068;SDS011;13887;57.196;-2.100;2022-09-09T17:06:47;14.33;;;13.33;;
22068;SDS011;13887;57.196;-2.100;2022-09-09T17:09:16;15.03;;;13.47;;
22068;SDS011;13887;57.196;-2.100;2022-09-09T17:11:44;14.30;;;12.90;;
22068;SDS011;13887;57.196;-2.100;2022-09-09T17:14:13;13.47;;;12.43;;